createdAt,value
2018-01-16T00:01:41.675Z,20.05
2018-01-16T00:04:09.205Z,18.90
2018-01-16T00:06:36.752Z,20.65
2018-01-16T00:09:03.641Z,20.10
2018-01-16T00:11:31.156Z,22.67
2018-01-16T00:13:58.393Z,22.27
2018-01-16T00:16:25.608Z,21.10
2018-01-16T00:18:53.117Z,19.95
2018-01-16T00:21:20.660Z,20.70
2018-01-16T00:23:48.179Z,19.80
2018-01-16T00:26:15.405Z,23.40
2018-01-16T00:28:42.928Z,20.73
2018-01-16T00:31:10.444Z,20.48
2018-01-16T00:33:37.672Z,20.80
2018-01-16T00:36:04.894Z,19.93
2018-01-16T00:38:32.325Z,21.80
2018-01-16T00:40:59.853Z,21.90
2018-01-16T00:43:27.105Z,20.30
2018-01-16T00:45:54.687Z,23.92
2018-01-16T00:48:22.208Z,20.70
2018-01-16T00:50:49.724Z,22.25
2018-01-16T00:53:17.268Z,22.55
2018-01-16T00:55:44.780Z,23.30
2018-01-16T00:58:12.285Z,24.27
2018-01-16T01:00:39.785Z,25.92
2018-01-16T01:03:07.301Z,23.75
2018-01-16T01:05:34.815Z,25.70
2018-01-16T01:08:02.340Z,25.50
2018-01-16T01:10:29.568Z,25.60
2018-01-16T01:12:56.800Z,26.50
2018-01-16T01:15:24.036Z,25.87
2018-01-16T01:17:51.564Z,25.52
2018-01-16T01:20:19.088Z,30.37
2018-01-16T01:22:46.608Z,26.70
2018-01-16T01:25:14.120Z,28.80
2018-01-16T01:27:41.646Z,28.15
2018-01-16T01:30:10.432Z,28.92
2018-01-16T01:32:37.656Z,24.03
2018-01-16T01:35:13.780Z,26.75
2018-01-16T01:37:41.009Z,28.47
2018-01-16T01:40:14.082Z,26.17
2018-01-16T01:42:41.609Z,27.83
2018-01-16T01:45:13.905Z,28.00
2018-01-16T01:47:41.123Z,26.90
2018-01-16T01:50:14.121Z,30.12
2018-01-16T01:52:42.643Z,28.90
2018-01-16T01:55:14.225Z,27.67
2018-01-16T01:57:42.156Z,27.33
2018-01-16T02:00:14.029Z,28.37
2018-01-16T02:02:41.535Z,32.20
2018-01-16T02:05:13.844Z,29.85
2018-01-16T02:07:41.080Z,28.90
2018-01-16T02:10:10.157Z,29.90
2018-01-16T02:12:37.382Z,28.87
2018-01-16T02:15:13.349Z,27.70
2018-01-16T02:17:40.868Z,29.48
2018-01-16T02:20:13.321Z,29.27
2018-01-16T02:22:40.836Z,32.65
2018-01-16T02:25:13.492Z,28.53
2018-01-16T02:27:40.716Z,28.80
2018-01-16T02:30:13.324Z,31.60
2018-01-16T02:32:41.170Z,30.37
2018-01-16T02:35:13.481Z,28.10
2018-01-16T02:37:40.718Z,32.00
2018-01-16T02:40:12.030Z,32.03
2018-01-16T02:42:39.257Z,30.33
2018-01-16T02:45:13.364Z,31.17
2018-01-16T02:47:40.702Z,30.08
2018-01-16T02:50:13.484Z,34.00
2018-01-16T02:52:40.524Z,30.07
2018-01-16T02:55:13.816Z,31.87
2018-01-16T02:57:43.002Z,36.30
2018-01-16T03:00:13.820Z,32.63
2018-01-16T03:02:41.352Z,31.55
2018-01-16T03:05:13.732Z,33.22
2018-01-16T03:07:41.239Z,31.55
2018-01-16T03:10:13.529Z,30.80
2018-01-16T03:12:40.791Z,33.30
2018-01-16T03:15:13.355Z,33.60
2018-01-16T03:17:40.588Z,32.73
2018-01-16T03:20:14.093Z,34.50
2018-01-16T03:22:41.312Z,31.30
2018-01-16T03:25:14.210Z,32.45
2018-01-16T03:27:41.431Z,32.43
2018-01-16T03:30:13.507Z,33.43
2018-01-16T03:32:40.733Z,34.27
2018-01-16T03:35:13.111Z,34.87
2018-01-16T03:37:40.331Z,32.57
2018-01-16T03:40:13.369Z,30.83
2018-01-16T03:42:40.588Z,33.87
2018-01-16T03:45:14.147Z,31.90
2018-01-16T03:47:41.377Z,30.70
2018-01-16T03:50:14.586Z,31.52
2018-01-16T03:52:41.807Z,31.57
2018-01-16T03:55:13.062Z,32.20
2018-01-16T03:57:40.280Z,29.70
2018-01-16T04:00:13.661Z,31.27
2018-01-16T04:02:40.881Z,33.80
2018-01-16T04:05:13.833Z,35.53
2018-01-16T04:07:41.051Z,32.73
2018-01-16T04:10:10.096Z,33.60
2018-01-16T04:12:37.324Z,30.90
2018-01-16T04:15:13.843Z,30.77
2018-01-16T04:17:41.076Z,33.20
2018-01-16T04:20:13.322Z,34.00
2018-01-16T04:22:40.575Z,31.87
2018-01-16T04:25:08.968Z,34.37
2018-01-16T04:27:36.788Z,33.57
2018-01-16T04:30:12.552Z,36.07
2018-01-16T04:32:39.784Z,33.50
2018-01-16T04:35:13.861Z,33.73
2018-01-16T04:37:41.076Z,34.67
2018-01-16T04:40:14.125Z,32.60
2018-01-16T04:42:41.358Z,34.17
2018-01-16T04:45:14.584Z,35.60
2018-01-16T04:47:41.819Z,36.10
2018-01-16T04:50:10.294Z,33.40
2018-01-16T04:52:37.805Z,34.88
2018-01-16T04:55:12.023Z,33.33
2018-01-16T04:57:39.392Z,33.07
2018-01-16T05:00:12.694Z,35.10
2018-01-16T05:02:39.924Z,35.23
2018-01-16T05:05:13.556Z,32.87
2018-01-16T05:07:40.797Z,32.17
2018-01-16T05:10:13.288Z,34.67
2018-01-16T05:12:40.505Z,33.77
2018-01-16T05:15:08.504Z,33.77
2018-01-16T05:17:35.730Z,33.13
2018-01-16T05:20:12.306Z,32.70
2018-01-16T05:22:39.536Z,33.00
2018-01-16T05:25:13.697Z,34.80
2018-01-16T05:27:40.926Z,29.50
2018-01-16T05:30:14.753Z,32.17
2018-01-16T05:32:41.977Z,32.90
2018-01-16T05:35:13.846Z,32.67
2018-01-16T05:37:41.080Z,32.10
2018-01-16T05:40:13.658Z,34.70
2018-01-16T05:42:40.873Z,31.47
2018-01-16T05:45:09.433Z,31.23
2018-01-16T05:47:36.676Z,33.80
2018-01-16T05:50:12.342Z,33.57
2018-01-16T05:52:39.380Z,31.77
2018-01-16T05:55:14.817Z,29.27
2018-01-16T05:57:42.033Z,33.47
2018-01-16T06:00:09.793Z,31.90
2018-01-16T06:02:37.640Z,30.50
2018-01-16T06:05:14.165Z,30.10
2018-01-16T06:07:41.392Z,32.80
2018-01-16T06:10:13.405Z,31.07
2018-01-16T06:12:40.620Z,33.43
2018-01-16T06:15:13.892Z,31.50
2018-01-16T06:17:43.151Z,34.10
2018-01-16T06:20:10.376Z,30.60
2018-01-16T06:22:37.615Z,33.20
2018-01-16T06:25:13.172Z,30.10
2018-01-16T06:27:40.397Z,30.97
2018-01-16T06:30:12.417Z,31.27
2018-01-16T06:32:39.642Z,32.70
2018-01-16T06:35:13.376Z,30.27
2018-01-16T06:37:40.631Z,35.10
2018-01-16T06:40:13.788Z,32.00
2018-01-16T06:42:41.005Z,32.70
2018-01-16T06:45:14.228Z,30.47
2018-01-16T06:47:41.464Z,34.00
2018-01-16T06:50:13.813Z,32.37
2018-01-16T06:52:41.023Z,30.80
2018-01-16T06:55:13.637Z,35.93
2018-01-16T06:57:40.856Z,31.07
2018-01-16T07:00:11.981Z,34.33
2018-01-16T07:02:39.197Z,33.30
2018-01-16T07:05:12.962Z,32.33
2018-01-16T07:07:40.202Z,31.40
2018-01-16T07:10:13.000Z,33.77
2018-01-16T07:12:40.228Z,36.23
2018-01-16T07:15:13.802Z,30.40
2018-01-16T07:17:41.076Z,33.30
2018-01-16T07:20:13.964Z,32.40
2018-01-16T07:22:41.208Z,32.33
2018-01-16T07:25:10.570Z,33.20
2018-01-16T07:27:37.820Z,35.47
2018-01-16T07:30:13.469Z,31.90
2018-01-16T07:32:40.696Z,30.37
2018-01-16T07:35:14.868Z,31.60
2018-01-16T07:37:43.056Z,31.53
2018-01-16T07:40:13.776Z,30.57
2018-01-16T07:42:40.995Z,31.53
2018-01-16T07:45:12.656Z,30.50
2018-01-16T07:47:39.877Z,32.83
2018-01-16T07:50:14.312Z,30.40
2018-01-16T07:52:41.536Z,33.53
2018-01-16T07:55:14.155Z,31.53
2018-01-16T07:57:41.385Z,32.83
2018-01-16T08:00:14.465Z,31.10
2018-01-16T08:02:41.692Z,30.27
2018-01-16T08:05:14.932Z,30.50
2018-01-16T08:07:42.202Z,31.70
2018-01-16T08:10:11.000Z,30.30
2018-01-16T08:12:47.894Z,31.87
2018-01-16T08:15:15.108Z,32.10
2018-01-16T08:17:42.340Z,30.60
2018-01-16T08:20:15.000Z,31.00
2018-01-16T08:22:42.232Z,39.60
2018-01-16T08:25:15.001Z,30.50
2018-01-16T08:27:42.251Z,31.00
2018-01-16T08:30:13.600Z,32.57
2018-01-16T08:32:40.872Z,31.20
2018-01-16T08:35:14.294Z,29.73
2018-01-16T08:37:41.512Z,34.00
2018-01-16T08:40:14.928Z,29.57
2018-01-16T08:42:42.151Z,29.07
2018-01-16T08:45:14.167Z,28.33
2018-01-16T08:47:41.386Z,29.60
2018-01-16T08:50:14.672Z,30.83
2018-01-16T08:52:41.903Z,29.60
2018-01-16T08:55:14.132Z,28.27
2018-01-16T08:57:41.684Z,28.27
2018-01-16T09:00:14.104Z,27.60
2018-01-16T09:02:41.324Z,28.57
2018-01-16T09:05:14.696Z,30.73
2018-01-16T09:07:41.942Z,29.00
2018-01-16T09:10:13.585Z,31.10
2018-01-16T09:12:41.309Z,28.70
2018-01-16T09:15:14.799Z,28.73
2018-01-16T09:17:42.032Z,29.97
2018-01-16T09:20:13.596Z,28.47
2018-01-16T09:22:40.853Z,32.97
2018-01-16T09:25:10.245Z,29.17
2018-01-16T09:27:37.940Z,29.30
2018-01-16T09:30:13.120Z,27.90
2018-01-16T09:32:41.305Z,29.37
2018-01-16T09:35:13.553Z,30.60
2018-01-16T09:37:40.773Z,28.60
2018-01-16T09:40:13.984Z,29.40
2018-01-16T09:42:41.205Z,30.97
2018-01-16T09:45:14.392Z,31.17
2018-01-16T09:47:41.629Z,30.33
2018-01-16T09:50:14.506Z,28.80
2018-01-16T09:52:41.724Z,27.30
2018-01-16T09:55:13.608Z,27.17
2018-01-16T09:57:40.841Z,29.80
2018-01-16T10:00:14.079Z,27.87
2018-01-16T10:02:41.316Z,30.13
2018-01-16T10:05:15.345Z,28.70
2018-01-16T10:07:42.576Z,30.90
2018-01-16T10:10:10.308Z,28.77
2018-01-16T10:12:37.548Z,30.10
2018-01-16T10:15:13.863Z,28.70
2018-01-16T10:17:41.084Z,30.20
2018-01-16T10:20:14.941Z,26.87
2018-01-16T10:22:42.153Z,29.47
2018-01-16T10:25:09.721Z,29.70
2018-01-16T10:27:36.678Z,28.13
2018-01-16T10:30:06.560Z,27.80
2018-01-16T10:32:33.880Z,28.63
2018-01-16T10:35:01.099Z,28.80
2018-01-16T10:37:28.319Z,28.33
2018-01-16T10:39:55.544Z,29.70
2018-01-16T10:42:22.772Z,29.67
2018-01-16T10:44:50.017Z,28.37
2018-01-16T10:47:17.249Z,29.37
2018-01-16T10:49:44.482Z,29.47
2018-01-16T10:52:11.741Z,30.50
2018-01-16T10:54:38.968Z,31.47
2018-01-16T10:57:06.200Z,30.17
2018-01-16T10:59:33.421Z,29.60
2018-01-16T11:02:00.641Z,31.73
2018-01-16T11:04:27.880Z,29.93
2018-01-16T11:06:55.142Z,30.73
2018-01-16T11:09:22.363Z,32.37
2018-01-16T11:11:49.600Z,32.97
2018-01-16T11:14:16.822Z,31.17
2018-01-16T11:16:44.062Z,30.73
2018-01-16T11:19:11.338Z,32.93
2018-01-16T11:21:38.566Z,31.00
2018-01-16T11:24:05.805Z,32.87
2018-01-16T11:26:33.039Z,31.87
2018-01-16T11:29:00.266Z,34.83
2018-01-16T11:31:27.525Z,30.83
2018-01-16T11:33:54.765Z,32.53
2018-01-16T11:36:21.990Z,32.87
2018-01-16T11:38:49.213Z,31.23
2018-01-16T11:41:16.441Z,31.30
2018-01-16T11:43:43.684Z,32.53
2018-01-16T11:46:10.915Z,32.23
2018-01-16T11:48:38.171Z,30.17
2018-01-16T11:51:05.404Z,32.73
2018-01-16T11:53:32.678Z,32.63
2018-01-16T11:55:59.903Z,31.40
2018-01-16T11:58:27.124Z,33.90
2018-01-16T12:00:54.608Z,30.47
2018-01-16T12:03:21.850Z,32.63
2018-01-16T12:05:48.917Z,32.07
2018-01-16T12:08:16.156Z,32.23
2018-01-16T12:10:43.401Z,33.20
2018-01-16T12:13:10.632Z,30.73
2018-01-16T12:15:37.860Z,31.17
2018-01-16T12:18:05.072Z,29.83
2018-01-16T12:20:32.304Z,30.30
2018-01-16T12:22:59.520Z,33.40
2018-01-16T12:25:26.801Z,35.87
2018-01-16T12:27:54.040Z,33.70
2018-01-16T12:30:21.268Z,33.70
2018-01-16T12:32:48.520Z,31.57
2018-01-16T12:35:15.573Z,34.93
2018-01-16T12:37:42.820Z,32.30
2018-01-16T12:40:14.090Z,33.10
2018-01-16T12:42:41.324Z,31.13
2018-01-16T12:45:14.364Z,30.20
2018-01-16T12:47:41.598Z,28.60
2018-01-16T12:50:14.326Z,31.50
2018-01-16T12:52:41.559Z,29.60
2018-01-16T12:55:10.802Z,28.07
2018-01-16T12:57:38.068Z,27.70
2018-01-16T13:00:13.186Z,28.30
2018-01-16T13:02:40.442Z,30.00
2018-01-16T13:05:14.328Z,25.87
2018-01-16T13:07:41.669Z,28.87
2018-01-16T13:10:08.900Z,30.20
2018-01-16T13:12:36.032Z,27.30
2018-01-16T13:17:37.106Z,29.80
2018-01-16T13:20:14.381Z,30.37
2018-01-16T13:22:41.603Z,31.43
2018-01-16T13:25:14.868Z,29.53
2018-01-16T13:27:42.107Z,26.83
2018-01-16T13:30:14.544Z,28.93
2018-01-16T13:32:41.785Z,28.93
2018-01-16T13:35:15.213Z,26.63
2018-01-16T13:37:42.441Z,29.77
2018-01-16T13:40:14.737Z,26.70
2018-01-16T13:42:41.981Z,29.30
2018-01-16T13:45:10.336Z,26.73
2018-01-16T13:47:37.550Z,28.60
2018-01-16T13:50:13.646Z,28.33
2018-01-16T13:52:41.405Z,28.03
2018-01-16T13:55:14.274Z,28.87
2018-01-16T13:57:41.508Z,29.57
2018-01-16T14:00:14.320Z,30.10
2018-01-16T14:02:41.574Z,29.47
2018-01-16T14:05:15.025Z,27.47
2018-01-16T14:07:42.265Z,30.20
2018-01-16T14:10:14.568Z,28.70
2018-01-16T14:12:41.792Z,29.33
2018-01-16T14:15:14.175Z,29.87
2018-01-16T14:17:41.407Z,30.33
2018-01-16T14:20:15.022Z,30.90
2018-01-16T14:22:42.252Z,28.70
2018-01-16T14:25:14.756Z,30.60
2018-01-16T14:27:42.005Z,29.57
2018-01-16T14:30:14.184Z,27.10
2018-01-16T14:32:41.405Z,28.53
2018-01-16T14:35:14.646Z,29.50
2018-01-16T14:37:41.904Z,32.87
2018-01-16T14:40:15.999Z,32.00
2018-01-16T14:42:43.232Z,28.80
2018-01-16T14:45:14.303Z,28.17
2018-01-16T14:47:41.536Z,27.33
2018-01-16T14:50:14.426Z,28.63
2018-01-16T14:52:41.657Z,27.43
2018-01-16T14:55:14.388Z,27.80
2018-01-16T14:57:41.630Z,29.97
2018-01-16T15:00:15.593Z,27.97
2018-01-16T15:02:42.868Z,30.27
2018-01-16T15:05:15.300Z,27.30
2018-01-16T15:07:42.529Z,30.97
2018-01-16T15:10:12.360Z,30.30
2018-01-16T15:12:39.606Z,27.73
2018-01-16T15:15:15.270Z,27.63
2018-01-16T15:17:42.537Z,27.60
2018-01-16T15:20:14.484Z,27.33
2018-01-16T15:22:41.717Z,29.90
2018-01-16T15:25:16.954Z,27.23
2018-01-16T15:27:44.818Z,29.87
2018-01-16T15:30:14.227Z,28.20
2018-01-16T15:32:41.460Z,27.80
2018-01-16T15:35:10.343Z,30.33
2018-01-16T15:37:37.580Z,29.47
2018-01-16T15:40:14.708Z,31.20
2018-01-16T15:42:42.196Z,27.53
2018-01-16T15:45:14.259Z,33.20
2018-01-16T15:47:41.476Z,29.23
2018-01-16T15:50:15.345Z,30.70
2018-01-16T15:52:43.491Z,29.40
2018-01-16T15:55:14.272Z,29.00
2018-01-16T15:57:41.488Z,31.57
2018-01-16T16:00:14.499Z,29.63
2018-01-16T16:02:42.265Z,29.93
2018-01-16T16:05:13.002Z,30.97
2018-01-16T16:07:40.224Z,31.40
2018-01-16T16:10:08.617Z,32.50
2018-01-16T16:12:35.847Z,30.70
2018-01-16T16:15:03.147Z,29.20
2018-01-16T16:17:31.168Z,32.97
2018-01-16T16:19:58.431Z,36.57
2018-01-16T16:22:25.665Z,31.97
2018-01-16T16:24:52.879Z,33.40
2018-01-16T16:27:20.833Z,31.93
2018-01-16T16:29:48.102Z,34.63
2018-01-16T16:32:15.343Z,31.80
2018-01-16T16:34:42.576Z,32.57
2018-01-16T16:37:09.770Z,34.03
2018-01-16T16:39:37.382Z,34.43
2018-01-16T16:42:04.654Z,35.20
2018-01-16T16:44:31.880Z,33.70
2018-01-16T16:46:59.121Z,32.07
2018-01-16T16:49:26.384Z,33.47
2018-01-16T16:51:53.608Z,31.03
2018-01-16T16:54:20.844Z,33.27
2018-01-16T16:56:48.076Z,32.97
2018-01-16T16:59:15.312Z,32.60
2018-01-16T17:01:42.544Z,36.57
2018-01-16T17:04:10.430Z,33.17
2018-01-16T17:06:37.652Z,33.70
2018-01-16T17:09:04.549Z,35.30
2018-01-16T17:11:31.850Z,35.97
2018-01-16T17:13:59.663Z,34.70
2018-01-16T17:16:29.468Z,34.40
2018-01-16T17:18:56.806Z,35.20
2018-01-16T17:21:24.080Z,37.67
2018-01-16T17:23:51.314Z,35.30
2018-01-16T17:26:18.564Z,37.90
2018-01-16T17:28:45.750Z,40.50
2018-01-16T17:31:12.965Z,30.93
2018-01-16T17:33:40.215Z,23.80
2018-01-16T17:36:07.621Z,14.93
2018-01-16T17:38:34.838Z,3.80
2018-01-16T17:41:02.078Z,2.70
2018-01-16T17:43:29.300Z,1.43
2018-01-16T17:45:56.533Z,0.80
2018-01-16T17:48:23.781Z,0.97
2018-01-16T17:50:51.041Z,0.80
2018-01-16T18:02:16.048Z,9.00
2018-01-16T18:04:43.272Z,10.87
2018-01-16T18:07:10.492Z,11.00
2018-01-16T18:09:37.702Z,10.40
2018-01-16T18:12:04.910Z,9.47
2018-01-16T18:14:32.117Z,9.00
2018-01-16T18:16:59.362Z,7.83
2018-01-16T18:19:26.393Z,9.33
2018-01-16T18:21:53.605Z,9.47
2018-01-16T18:24:20.835Z,8.60
2018-01-16T18:26:48.080Z,8.60
2018-01-16T18:29:15.284Z,9.30
2018-01-16T18:34:14.796Z,9.60
2018-01-16T18:36:43.473Z,9.33
2018-01-16T18:39:11.750Z,9.10
2018-01-16T18:41:40.034Z,8.87
2018-01-16T18:45:27.083Z,8.30
2018-01-16T18:47:54.304Z,8.07
2018-01-16T18:50:21.538Z,9.10
2018-01-16T18:52:48.755Z,8.13
2018-01-16T18:55:15.977Z,7.50
2018-01-16T18:57:43.210Z,8.60
2018-01-16T19:00:14.528Z,7.53
2018-01-16T19:02:41.900Z,8.00
2018-01-16T19:05:14.288Z,8.10
2018-01-16T19:07:41.508Z,8.33
2018-01-16T19:10:14.508Z,7.70
2018-01-16T19:12:41.721Z,7.07
2018-01-16T19:15:15.392Z,7.73
2018-01-16T19:17:42.616Z,6.67
2018-01-16T19:20:14.799Z,7.13
2018-01-16T19:22:42.013Z,7.37
2018-01-16T19:25:10.904Z,7.30
2018-01-16T19:27:38.133Z,8.70
2018-01-16T19:30:13.400Z,7.30
2018-01-16T19:32:40.620Z,6.53
2018-01-16T19:35:14.148Z,5.80
2018-01-16T20:51:31.792Z,2.40
2018-01-16T20:53:59.020Z,2.63
2018-01-16T20:56:26.351Z,2.30
2018-01-16T20:58:53.581Z,2.73
2018-01-16T21:01:20.803Z,2.83
2018-01-16T21:03:48.037Z,2.80
2018-01-16T21:06:15.244Z,1.90
2018-01-16T21:08:42.460Z,3.00
2018-01-16T21:11:09.668Z,2.70
2018-01-16T21:13:36.890Z,2.37
2018-01-16T21:16:04.092Z,2.30
2018-01-16T21:18:31.327Z,2.83
2018-01-16T21:20:58.572Z,2.50
2018-01-16T21:23:25.986Z,2.47
2018-01-16T21:26:05.784Z,2.40
2018-01-16T21:28:33.000Z,2.50
2018-01-16T21:31:00.216Z,2.73
2018-01-16T21:33:27.494Z,2.60
2018-01-16T21:35:54.696Z,1.80
2018-01-16T21:38:21.751Z,2.37
2018-01-16T21:40:48.969Z,1.63
2018-01-16T21:43:16.181Z,1.70
2018-01-16T21:45:43.388Z,2.00
2018-01-16T21:49:07.805Z,3.43
2018-01-16T21:51:36.059Z,3.50
2018-01-16T21:54:04.011Z,3.70
2018-01-16T21:56:32.260Z,4.07
2018-01-16T21:59:00.686Z,3.57
2018-01-16T22:01:28.921Z,3.70
2018-01-16T22:03:57.179Z,3.93
2018-01-16T22:06:25.592Z,4.23
2018-01-16T22:08:53.942Z,3.70
2018-01-16T22:11:22.525Z,3.37
2018-01-16T22:13:50.824Z,2.67
2018-01-16T22:16:19.073Z,2.57
2018-01-16T22:24:45.554Z,3.47
2018-01-16T22:27:13.785Z,3.07
2018-01-16T22:29:41.366Z,3.40
2018-01-16T22:32:09.613Z,3.37
2018-01-16T22:34:37.901Z,3.57
2018-01-16T22:37:06.140Z,3.13
2018-01-16T22:39:34.391Z,2.80
2018-01-16T22:42:02.636Z,3.07
2018-01-16T22:44:30.885Z,3.07
2018-01-16T22:46:59.137Z,3.57
2018-01-16T22:49:27.380Z,2.97
2018-01-16T22:51:55.639Z,3.07
2018-01-16T22:54:23.872Z,2.70
2018-01-16T22:56:52.133Z,2.97
